createdAt,value
2017-10-28T00:01:21.849Z,101333.50
2017-10-28T00:04:23.347Z,101332.33
2017-10-28T00:07:24.845Z,101335.02
2017-10-28T00:10:26.417Z,101320.27
2017-10-28T00:13:27.890Z,101322.75
2017-10-28T00:16:30.152Z,101324.17
2017-10-28T00:19:32.435Z,101321.63
2017-10-28T00:22:33.986Z,101316.92
2017-10-28T00:25:36.216Z,101295.30
2017-10-28T00:28:37.735Z,101320.08
2017-10-28T00:31:45.509Z,101312.19
2017-10-28T00:34:53.930Z,101298.15
2017-10-28T00:37:56.236Z,101300.64
2017-10-28T00:40:57.960Z,101298.13
2017-10-28T00:43:59.608Z,101295.31
2017-10-28T00:47:01.865Z,101267.78
2017-10-28T00:50:03.407Z,101276.51
2017-10-28T00:53:04.910Z,101275.28
2017-10-28T00:56:06.386Z,101263.31
2017-10-28T00:59:07.955Z,101269.19
2017-10-28T01:02:09.530Z,101269.42
2017-10-28T01:05:11.767Z,101266.58
2017-10-28T01:08:13.773Z,101266.27
2017-10-28T01:11:16.644Z,101267.08
2017-10-28T01:14:19.435Z,101262.80
2017-10-28T01:17:22.690Z,101240.55
2017-10-28T01:20:25.129Z,101239.17
2017-10-28T01:23:27.351Z,101237.15
2017-10-28T01:26:29.448Z,101223.37
2017-10-28T01:29:32.025Z,101220.02
2017-10-28T01:32:34.966Z,101209.73
2017-10-28T01:35:36.981Z,101183.53
2017-10-28T01:38:39.950Z,101211.03
2017-10-28T01:41:43.093Z,101210.02
2017-10-28T01:44:45.089Z,101196.68
2017-10-28T01:47:47.098Z,101198.67
2017-10-28T01:50:49.906Z,101177.28
2017-10-28T01:53:51.915Z,101152.31
2017-10-28T01:56:54.008Z,101143.91
2017-10-28T01:59:55.547Z,101150.41
2017-10-28T02:02:57.080Z,101120.55
2017-10-28T02:05:58.627Z,101125.55
2017-10-28T02:09:00.235Z,101122.00
2017-10-28T02:12:01.728Z,101097.98
2017-10-28T02:15:03.303Z,101095.62
2017-10-28T02:18:04.790Z,101078.03
2017-10-28T02:21:06.375Z,101080.53
2017-10-28T02:24:08.667Z,101082.55
2017-10-28T02:27:10.245Z,101073.04
2017-10-28T02:30:11.724Z,101079.66
2017-10-28T02:33:13.238Z,101084.85
2017-10-28T02:36:14.744Z,101066.12
2017-10-28T02:39:16.258Z,101078.30
2017-10-28T02:42:17.866Z,101082.54
2017-10-28T02:45:20.079Z,101070.22
2017-10-28T02:48:21.570Z,101069.11
2017-10-28T02:51:23.160Z,101069.50
2017-10-28T02:54:25.425Z,101027.59
2017-10-28T02:57:26.969Z,101049.75
2017-10-28T03:00:29.385Z,101050.20
2017-10-28T03:03:30.941Z,101040.76
2017-10-28T03:06:32.484Z,101042.11
2017-10-28T03:09:33.969Z,101038.86
2017-10-28T03:12:35.471Z,101021.36
2017-10-28T03:15:37.738Z,101005.31
2017-10-28T03:18:39.957Z,100979.28
2017-10-28T03:21:41.500Z,100996.55
2017-10-28T03:24:43.052Z,101012.09
2017-10-28T03:27:44.576Z,100995.50
2017-10-28T03:30:46.909Z,100988.38
2017-10-28T03:33:48.451Z,100985.41
2017-10-28T03:36:50.001Z,100971.90
2017-10-28T03:39:52.288Z,100981.88
2017-10-28T03:42:53.828Z,100964.92
2017-10-28T03:45:56.119Z,100960.50
2017-10-28T03:48:57.740Z,100947.59
2017-10-28T03:51:59.197Z,100936.86
2017-10-28T03:55:00.658Z,100933.81
2017-10-28T03:58:02.156Z,100921.80
2017-10-28T04:01:03.671Z,100940.99
2017-10-28T04:04:05.200Z,100915.92
2017-10-28T04:07:06.700Z,100923.39
2017-10-28T04:10:09.180Z,100952.78
2017-10-28T04:13:10.637Z,100953.67
2017-10-28T04:16:12.146Z,100953.27
2017-10-28T04:19:13.701Z,100939.46
2017-10-28T04:22:15.204Z,100942.06
2017-10-28T04:25:16.705Z,100948.91
2017-10-28T04:28:18.219Z,100938.09
2017-10-28T04:31:19.730Z,100929.97
2017-10-28T04:34:21.251Z,100936.55
2017-10-28T04:37:23.541Z,100937.65
2017-10-28T04:40:25.068Z,100939.74
2017-10-28T04:43:27.303Z,100906.53
2017-10-28T04:46:29.224Z,100912.72
2017-10-28T04:49:30.732Z,100892.55
2017-10-28T04:52:32.338Z,100892.29
2017-10-28T04:55:33.829Z,100864.73
2017-10-28T04:58:35.370Z,100882.20
2017-10-28T05:01:36.909Z,100856.07
2017-10-28T05:04:39.260Z,100843.33
2017-10-28T05:07:40.808Z,100828.98
2017-10-28T05:10:43.120Z,100824.86
2017-10-28T05:13:44.732Z,100822.27
2017-10-28T05:16:46.253Z,100816.25
2017-10-28T05:19:47.810Z,100810.44
2017-10-28T05:22:49.291Z,100804.54
2017-10-28T05:25:51.610Z,100811.34
2017-10-28T05:28:53.139Z,100800.41
2017-10-28T05:35:03.538Z,100807.46
2017-10-28T05:38:05.817Z,100812.65
2017-10-28T05:41:07.376Z,100795.27
2017-10-28T05:44:08.884Z,100806.78
2017-10-28T05:47:11.220Z,100775.75
2017-10-28T05:50:12.806Z,100767.47
2017-10-28T05:53:15.109Z,100762.37
2017-10-28T05:56:16.628Z,100749.50
2017-10-28T05:59:18.872Z,100755.02
2017-10-28T06:02:20.435Z,100758.02
2017-10-28T06:05:22.063Z,100744.34
2017-10-28T06:08:23.628Z,100727.88
2017-10-28T06:11:25.182Z,100730.94
2017-10-28T06:14:26.706Z,100729.44
2017-10-28T06:17:28.194Z,100740.28
2017-10-28T06:20:29.749Z,100735.61
2017-10-28T06:23:31.304Z,100734.22
2017-10-28T06:26:32.771Z,100731.33
2017-10-28T06:29:34.305Z,100752.53
2017-10-28T06:32:35.813Z,100741.48
2017-10-28T06:35:37.394Z,100746.47
2017-10-28T06:38:38.866Z,100743.36
2017-10-28T06:41:40.363Z,100735.42
2017-10-28T06:44:42.714Z,100752.65
2017-10-28T06:47:44.252Z,100765.67
2017-10-28T06:50:46.006Z,100761.83
2017-10-28T06:53:47.521Z,100753.92
2017-10-28T06:56:49.094Z,100751.92
2017-10-28T06:59:50.667Z,100749.86
2017-10-28T07:02:52.228Z,100745.30
2017-10-28T07:05:53.804Z,100737.02
2017-10-28T07:08:56.184Z,100729.98
2017-10-28T07:11:57.854Z,100741.63
2017-10-28T07:14:59.397Z,100743.97
2017-10-28T07:18:01.068Z,100764.02
2017-10-28T07:21:03.403Z,100747.39
2017-10-28T07:24:04.933Z,100728.16
2017-10-28T07:27:06.571Z,100746.61
2017-10-28T07:30:08.151Z,100739.47
2017-10-28T07:33:10.644Z,100735.08
2017-10-28T07:36:12.223Z,100748.53
2017-10-28T07:39:14.499Z,100726.48
2017-10-28T07:42:16.050Z,100692.66
2017-10-28T07:45:17.505Z,100699.78
2017-10-28T07:48:19.790Z,100670.64
2017-10-28T07:51:22.024Z,100658.70
2017-10-28T07:54:23.529Z,100683.16
2017-10-28T07:57:25.123Z,100698.28
2017-10-28T08:00:27.396Z,100690.45
2017-10-28T08:03:28.929Z,100708.30
2017-10-28T08:06:30.395Z,100723.38
2017-10-28T08:09:32.040Z,100723.42
2017-10-28T08:12:33.529Z,100728.28
2017-10-28T08:15:35.102Z,100724.23
2017-10-28T08:18:36.664Z,100713.23
2017-10-28T08:21:38.961Z,100723.41
2017-10-28T08:24:40.578Z,100722.67
2017-10-28T08:27:42.932Z,100721.45
2017-10-28T08:30:44.524Z,100717.19
2017-10-28T08:33:46.856Z,100722.61
2017-10-28T08:36:48.423Z,100705.63
2017-10-28T08:39:49.953Z,100690.50
2017-10-28T08:42:51.504Z,100684.59
2017-10-28T08:45:53.133Z,100672.14
2017-10-28T08:48:55.468Z,100657.25
2017-10-28T08:51:57.081Z,100677.55
2017-10-28T08:54:58.603Z,100675.16
2017-10-28T08:58:00.911Z,100663.50
2017-10-28T09:01:02.560Z,100667.47
2017-10-28T09:04:04.894Z,100651.31
2017-10-28T09:07:06.488Z,100648.49
2017-10-28T09:10:08.039Z,100652.28
2017-10-28T09:13:09.505Z,100641.09
2017-10-28T09:16:11.209Z,100651.09
2017-10-28T09:19:13.178Z,100640.97
2017-10-28T09:22:15.185Z,100632.55
2017-10-28T09:25:59.131Z,100630.84
2017-10-28T09:29:07.044Z,100607.59
2017-10-28T09:32:08.991Z,100610.77
2017-10-28T09:35:10.963Z,100606.83
2017-10-28T09:38:13.117Z,100613.27
2017-10-28T09:41:14.746Z,100605.22
2017-10-28T09:44:16.335Z,100589.48
2017-10-28T09:47:18.588Z,100580.09
2017-10-28T09:50:20.188Z,100591.95
2017-10-28T09:53:21.753Z,100600.88
2017-10-28T09:56:23.268Z,100614.58
2017-10-28T09:59:25.563Z,100591.34
2017-10-28T10:02:27.122Z,100594.43
2017-10-28T10:05:28.765Z,100588.35
2017-10-28T10:08:31.029Z,100610.83
2017-10-28T10:11:33.381Z,100611.98
2017-10-28T10:14:34.921Z,100602.48
2017-10-28T10:17:36.481Z,100601.71
2017-10-28T10:20:38.065Z,100605.41
2017-10-28T10:23:40.338Z,100610.58
2017-10-28T10:26:42.652Z,100606.52
2017-10-28T10:29:44.236Z,100603.73
2017-10-28T10:32:45.739Z,100583.97
2017-10-28T10:35:47.356Z,100569.63
2017-10-28T10:38:49.679Z,100568.77
2017-10-28T10:41:51.321Z,100580.59
2017-10-28T10:44:52.857Z,100548.06
2017-10-28T10:47:55.161Z,100551.92
2017-10-28T10:50:56.674Z,100534.58
2017-10-28T10:53:58.299Z,100552.27
2017-10-28T10:56:59.844Z,100513.13
2017-10-28T11:00:01.409Z,100514.65
2017-10-28T11:03:03.122Z,100505.41
2017-10-28T11:06:05.397Z,100502.25
2017-10-28T11:09:07.739Z,100499.34
2017-10-28T11:12:09.338Z,100508.95
2017-10-28T11:15:10.861Z,100501.55
2017-10-28T11:18:13.106Z,100497.14
2017-10-28T11:21:14.641Z,100502.98
2017-10-28T11:24:17.064Z,100510.05
2017-10-28T11:27:19.443Z,100513.39
2017-10-28T11:30:21.209Z,100502.80
2017-10-28T11:33:22.737Z,100483.17
2017-10-28T11:36:25.038Z,100475.20
2017-10-28T11:39:27.383Z,100462.75
2017-10-28T11:42:29.713Z,100461.44
2017-10-28T11:45:31.249Z,100452.64
2017-10-28T11:48:32.763Z,100446.74
2017-10-28T11:51:34.374Z,100447.27
2017-10-28T11:54:35.934Z,100438.31
2017-10-28T11:57:37.546Z,100418.59
2017-10-28T12:00:39.836Z,100419.44
2017-10-28T12:03:42.145Z,100392.20
2017-10-28T12:06:43.710Z,100395.23
2017-10-28T12:09:45.333Z,100398.48
2017-10-28T12:12:46.849Z,100423.15
2017-10-28T12:15:48.381Z,100421.44
2017-10-28T12:18:49.986Z,100412.67
2017-10-28T12:21:51.557Z,100411.70
2017-10-28T12:24:53.150Z,100413.80
2017-10-28T12:27:54.792Z,100396.67
2017-10-28T12:30:56.347Z,100387.74
2017-10-28T12:33:58.099Z,100375.63
2017-10-28T12:36:59.616Z,100350.80
2017-10-28T12:40:01.205Z,100340.35
2017-10-28T12:43:02.695Z,100356.64
2017-10-28T12:46:04.232Z,100307.97
2017-10-28T12:49:05.843Z,100310.66
2017-10-28T12:52:07.429Z,100321.21
2017-10-28T12:55:08.957Z,100318.02
2017-10-28T12:58:10.531Z,100329.09
2017-10-28T13:01:12.141Z,100300.02
2017-10-28T13:04:14.436Z,100302.01
2017-10-28T13:07:16.009Z,100294.19
2017-10-28T13:10:17.568Z,100270.05
2017-10-28T13:13:19.143Z,100245.49
2017-10-28T13:16:20.652Z,100252.21
2017-10-28T13:19:22.964Z,100236.48
2017-10-28T13:22:24.565Z,100263.05
2017-10-28T13:25:26.154Z,100245.86
2017-10-28T13:28:27.771Z,100247.77
2017-10-28T13:31:29.363Z,100257.54
2017-10-28T13:34:30.916Z,100254.53
2017-10-28T13:37:32.493Z,100257.95
2017-10-28T13:40:34.218Z,100244.94
2017-10-28T13:43:37.041Z,100252.38
2017-10-28T13:46:39.087Z,100278.25
2017-10-28T13:49:41.380Z,100275.14
2017-10-28T13:52:44.105Z,100263.64
2017-10-28T13:55:47.119Z,100234.03
2017-10-28T13:58:48.730Z,100255.25
2017-10-28T14:01:50.433Z,100252.00
2017-10-28T14:04:52.309Z,100238.02
2017-10-28T14:07:54.136Z,100233.05
2017-10-28T14:10:56.472Z,100227.80
2017-10-28T14:13:58.050Z,100211.42
2017-10-28T14:17:00.093Z,100229.23
2017-10-28T14:20:01.879Z,100223.22
2017-10-28T14:23:03.495Z,100223.77
2017-10-28T14:26:05.362Z,100212.24
2017-10-28T14:29:08.695Z,100215.69
2017-10-28T14:32:11.490Z,100220.59
2017-10-28T14:35:18.058Z,100242.56
2017-10-28T14:38:20.550Z,100244.11
2017-10-28T14:41:22.162Z,100228.48
2017-10-28T14:44:24.314Z,100232.48
2017-10-28T14:47:26.738Z,100223.86
2017-10-28T14:50:32.390Z,100213.83
2017-10-28T14:53:34.478Z,100217.91
2017-10-28T14:56:37.238Z,100195.71
2017-10-28T14:59:41.375Z,100203.16
2017-10-28T15:02:42.940Z,100202.14
2017-10-28T15:05:44.739Z,100214.25
2017-10-28T15:08:59.812Z,100173.23
2017-10-28T15:16:05.017Z,100185.89
2017-10-28T15:19:07.239Z,100163.56
2017-10-28T15:22:10.084Z,100172.25
2017-10-28T15:25:14.083Z,100169.33
2017-10-28T15:28:16.473Z,100153.60
2017-10-28T15:31:18.110Z,100162.45
2017-10-28T15:34:19.864Z,100163.75
2017-10-28T15:37:21.591Z,100156.80
2017-10-28T15:40:23.337Z,100155.02
2017-10-28T15:43:24.886Z,100144.75
2017-10-28T15:46:26.440Z,100128.98
2017-10-28T15:58:04.069Z,100115.97
2017-10-28T16:01:05.991Z,100083.57
2017-10-28T16:04:08.997Z,100093.11
2017-10-28T16:10:19.553Z,100106.16
2017-10-28T16:13:21.147Z,100094.70
2017-10-28T16:16:22.653Z,100088.95
2017-10-28T16:19:24.328Z,100087.05
2017-10-28T16:22:25.905Z,100082.16
2017-10-28T16:25:28.142Z,100091.36
2017-10-28T16:28:29.690Z,100072.20
2017-10-28T16:31:31.299Z,100073.77
2017-10-28T16:34:32.837Z,100066.84
2017-10-28T16:37:34.313Z,100052.80
2017-10-28T16:40:35.908Z,100065.14
2017-10-28T16:43:38.160Z,100050.41
2017-10-28T16:46:39.711Z,100047.89
2017-10-28T16:49:41.268Z,100037.41
2017-10-28T16:52:42.846Z,100036.09
2017-10-28T16:55:44.360Z,100033.56
2017-10-28T16:58:45.903Z,100018.76
2017-10-28T17:01:47.553Z,100003.25
2017-10-28T17:04:49.119Z,99997.80
2017-10-28T17:07:50.694Z,99999.92
2017-10-28T17:10:52.638Z,99997.09
2017-10-28T17:13:54.272Z,99988.55
2017-10-28T17:16:55.941Z,99990.75
2017-10-28T17:19:57.594Z,99988.86
2017-10-28T17:22:59.208Z,99977.69
2017-10-28T17:26:01.602Z,99974.42
2017-10-28T17:29:03.271Z,99976.11
2017-10-28T17:32:04.877Z,99977.86
2017-10-28T17:35:06.466Z,99980.77
2017-10-28T17:38:08.823Z,99978.59
2017-10-28T17:41:11.143Z,99972.56
2017-10-28T17:44:12.744Z,99955.73
2017-10-28T17:47:14.324Z,99960.01
2017-10-28T17:50:17.129Z,99949.45
2017-10-28T17:53:18.709Z,99939.30
2017-10-28T17:56:20.298Z,99922.49
2017-10-28T17:59:22.629Z,99912.14
2017-10-28T18:02:24.264Z,99931.05
2017-10-28T18:05:25.862Z,99920.50
2017-10-28T18:08:27.457Z,99919.35
2017-10-28T18:11:29.121Z,99922.86
2017-10-28T18:14:30.754Z,99899.70
2017-10-28T18:17:32.449Z,99905.72
2017-10-28T18:20:34.025Z,99915.97
2017-10-28T18:23:35.663Z,99911.95
2017-10-28T18:26:37.235Z,99904.25
2017-10-28T18:29:39.092Z,99913.10
2017-10-28T18:32:40.669Z,99886.34
2017-10-28T18:35:43.105Z,99873.34
2017-10-28T18:38:44.630Z,99881.16
2017-10-28T18:41:46.153Z,99863.64
2017-10-28T18:44:47.710Z,99863.52
2017-10-28T18:47:49.231Z,99854.84
2017-10-28T18:50:50.848Z,99858.25
2017-10-28T18:53:53.130Z,99836.68
2017-10-28T18:56:54.680Z,99841.11
2017-10-28T18:59:56.215Z,99829.35
2017-10-28T19:02:57.760Z,99826.91
2017-10-28T19:05:59.280Z,99825.60
2017-10-28T19:09:00.917Z,99807.91
2017-10-28T19:12:03.257Z,99782.14
2017-10-28T19:15:04.840Z,99808.66
2017-10-28T19:18:06.347Z,99807.89
2017-10-28T19:21:07.877Z,99787.12
2017-10-28T19:24:09.400Z,99793.39
2017-10-28T19:27:11.703Z,99778.75
2017-10-28T19:30:13.265Z,99765.36
2017-10-28T19:33:14.823Z,99741.31
2017-10-28T19:36:16.419Z,99771.55
2017-10-28T19:39:18.122Z,99748.98
2017-10-28T19:42:19.640Z,99741.31
2017-10-28T19:45:21.973Z,99738.50
2017-10-28T19:48:23.509Z,99727.74
2017-10-28T19:51:25.086Z,99728.45
2017-10-28T19:54:26.618Z,99719.72
2017-10-28T19:57:28.241Z,99716.00
2017-10-28T20:00:30.536Z,99686.40
2017-10-28T20:03:32.776Z,99668.52
2017-10-28T20:06:35.064Z,99685.60
2017-10-28T20:09:36.668Z,99674.56
2017-10-28T20:12:38.243Z,99680.61
2017-10-28T20:15:40.526Z,99649.75
2017-10-28T20:18:42.899Z,99642.55
2017-10-28T20:21:44.476Z,99630.15
2017-10-28T20:24:46.808Z,99648.89
2017-10-28T20:27:48.431Z,99610.83
2017-10-28T20:30:50.056Z,99621.58
2017-10-28T20:33:52.328Z,99598.91
2017-10-28T20:36:54.767Z,99588.45
2017-10-28T20:39:56.464Z,99610.93
2017-10-28T20:42:58.775Z,99587.50
2017-10-28T20:46:00.296Z,99576.79
2017-10-28T20:49:02.744Z,99592.26
2017-10-28T20:52:04.273Z,99574.79
2017-10-28T20:55:05.933Z,99571.52
2017-10-28T20:58:07.463Z,99579.12
2017-10-28T21:01:09.051Z,99574.19
2017-10-28T21:04:10.594Z,99572.37
2017-10-28T21:07:12.149Z,99556.90
2017-10-28T21:10:13.697Z,99541.83
2017-10-28T21:13:15.360Z,99546.36
2017-10-28T21:16:16.881Z,99546.14
2017-10-28T21:19:19.193Z,99554.41
2017-10-28T21:22:20.787Z,99531.29
2017-10-28T21:25:22.385Z,99539.83
2017-10-28T21:28:23.980Z,99533.22
2017-10-28T21:31:25.561Z,99522.66
2017-10-28T21:34:27.971Z,99506.64
2017-10-28T21:37:29.509Z,99515.28
2017-10-28T21:40:31.142Z,99516.41
2017-10-28T21:43:33.440Z,99493.45
2017-10-28T21:46:34.981Z,99477.17
2017-10-28T21:49:37.348Z,99474.30
2017-10-28T21:52:39.673Z,99478.55
2017-10-28T21:55:41.291Z,99446.27
2017-10-28T21:58:42.930Z,99458.77
2017-10-28T22:01:44.529Z,99448.52
2017-10-28T22:04:46.186Z,99432.72
2017-10-28T22:07:47.783Z,99413.75
2017-10-28T22:10:49.448Z,99428.20
2017-10-28T22:13:51.035Z,99418.95
2017-10-28T22:16:52.658Z,99408.45
2017-10-28T22:19:54.294Z,99424.31
2017-10-28T22:22:55.885Z,99408.18
2017-10-28T22:25:58.196Z,99396.95
2017-10-28T22:28:59.818Z,99383.05
2017-10-28T22:32:02.188Z,99396.46
2017-10-28T22:35:04.526Z,99378.33
2017-10-28T22:38:06.200Z,99384.04
2017-10-28T22:41:07.903Z,99384.94
2017-10-28T22:44:09.489Z,99367.13
2017-10-28T22:47:11.146Z,99349.08
2017-10-28T22:50:12.909Z,99337.09
2017-10-28T22:53:14.434Z,99329.95
2017-10-28T22:56:16.022Z,99330.75
2017-10-28T22:59:17.609Z,99323.02
2017-10-28T23:02:19.950Z,99339.14
2017-10-28T23:05:21.499Z,99339.53
2017-10-28T23:08:23.024Z,99336.68
2017-10-28T23:11:24.634Z,99335.10
2017-10-28T23:14:26.137Z,99328.72
2017-10-28T23:17:27.693Z,99326.34
2017-10-28T23:20:29.268Z,99321.44
2017-10-28T23:23:30.849Z,99318.78
2017-10-28T23:26:32.378Z,99306.87
2017-10-28T23:29:33.921Z,99293.17
2017-10-28T23:32:35.427Z,99298.20
2017-10-28T23:35:37.730Z,99283.17
2017-10-28T23:38:39.313Z,99306.35
2017-10-28T23:41:41.086Z,99286.89
2017-10-28T23:44:42.580Z,99276.58
2017-10-28T23:47:44.856Z,99259.06
2017-10-28T23:50:47.107Z,99251.58
2017-10-28T23:53:48.642Z,99246.92
2017-10-28T23:56:50.152Z,99235.09
2017-10-28T23:59:51.657Z,99239.55
